Time;durP1;ratioP1;P1;durP2;ratioP2;P2;SDS_P1;SDS_P2;PMS_P1;PMS_P2;Temp;Humidity;BMP_temperature;BMP_pressure;BME280_temperature;BME280_humidity;BME280_pressure;Samples;Min_cycle;Max_cycle;Signal;HPM_P1;HPM_P2
2023/05/18 00:02:03;;;;;;;;;;;;;;;;;;6185177;23;19928;-90
2023/05/18 00:04:30;;;;;;;;;;;;;;;;;;6158750;23;19916;-90
2023/05/18 00:06:57;;;;;;;;;;;;;;;;;;6134165;23;20014;-89
2023/05/18 00:09:23;;;;;;;;;;;;;;;;;;6185162;23;19916;-88
2023/05/18 00:11:49;;;;;;;;;;;;;;;;;;6158975;23;19916;-89
2023/05/18 00:14:15;;;;;;;;;;;;;;;;;;6158592;23;20203;-89
2023/05/18 00:16:41;;;;;;;;;;;;;;;;;;6158606;23;19916;-91
2023/05/18 00:19:07;;;;;;;;;;;;;;;;;;6158699;23;19920;-90
2023/05/18 00:21:34;;;;;;;;;;;;;;;;;;6158751;23;19920;-90
2023/05/18 00:24:00;;;;;;;;;;;;;;;;;;6158607;23;19916;-90
2023/05/18 00:26:27;;;;;;;;;;;;;;;;;;6183643;23;21277;-90
2023/05/18 00:28:53;;;;;;;;;;;;;;;;;;6158068;23;19947;-90
2023/05/18 00:31:19;;;;;;;;;;;;;;;;;;6134649;23;19951;-90
2023/05/18 00:33:45;;;;;;;;;;;;;;;;;;6133975;23;19943;-90
2023/05/18 00:36:11;;;;;;;;;;;;;;;;;;6184723;23;19916;-90
2023/05/18 00:38:37;;;;;;;;;;;;;;;;;;6159063;23;19936;-89
2023/05/18 00:41:03;;;;;;;;;;;;;;;;;;6158332;23;19920;-90
2023/05/18 00:43:29;;;;;;;;;;;;;;;;;;6158988;23;19923;-91
2023/05/18 00:45:55;;;;;;;;;;;;;;;;;;6185392;23;19957;-89
2023/05/18 00:48:20;;;;;;;;;;;;;;;;;;6158585;23;19999;-91
2023/05/18 00:50:46;;;;;;;;;;;;;;;;;;6158426;23;20457;-91
2023/05/18 00:53:12;;;;;;;;;;;;;;;;;;6133778;23;19920;-90
2023/05/18 00:55:38;;;;;;;;;;;;;;;;;;6158281;23;19916;-90
2023/05/18 00:58:04;;;;;;;;;;;;;;;;;;6185030;23;19916;-90
2023/05/18 01:00:30;;;;;;;;;;;;;;;;;;6184814;23;20349;-89
2023/05/18 01:02:56;;;;;;;;;;;;;;;;;;6158147;23;20297;-89
2023/05/18 01:05:22;;;;;;;;;;;;;;;;;;6185047;23;19944;-90
2023/05/18 01:07:49;;;;;;;;;;;;;;;;;;6158018;23;19917;-89
2023/05/18 01:10:15;;;;;;;;;;;;;;;;;;6158106;23;19920;-89
2023/05/18 01:12:41;;;;;;;;;;;;;;;;;;6184960;23;19991;-90
2023/05/18 01:15:07;;;;;;;;;;;;;;;;;;6158456;23;20215;-90
2023/05/18 01:17:33;;;;;;;;;;;;;;;;;;6158342;23;20293;-89
2023/05/18 01:19:59;;;;;;;;;;;;;;;;;;6158190;23;19920;-90
2023/05/18 01:22:28;;;;;;;;;;;;;;;;;;6184811;23;20335;-90
2023/05/18 01:24:54;;;;;;;;;;;;;;;;;;6133730;23;19923;-89
2023/05/18 01:27:20;;;;;;;;;;;;;;;;;;6184677;23;20231;-90
2023/05/18 01:29:46;;;;;;;;;;;;;;;;;;6162167;23;20080;-92
2023/05/18 01:32:12;;;;;;;;;;;;;;;;;;6163080;23;19923;-89
2023/05/18 01:34:38;;;;;;;;;;;;;;;;;;6159870;23;19923;-90
2023/05/18 01:37:04;;;;;;;;;;;;;;;;;;6160212;23;19917;-90
2023/05/18 01:39:29;;;;;;;;;;;;;;;;;;6187057;23;20302;-90
2023/05/18 01:41:55;;;;;;;;;;;;;;;;;;6135299;23;19920;-89
2023/05/18 01:44:21;;;;;;;;;;;;;;;;;;6135057;23;19920;-89
2023/05/18 01:46:47;;;;;;;;;;;;;;;;;;6186440;23;19966;-89
2023/05/18 01:49:13;;;;;;;;;;;;;;;;;;6159700;23;19991;-90
2023/05/18 01:51:39;;;;;;;;;;;;;;;;;;6159809;23;19971;-89
2023/05/18 01:54:05;;;;;;;;;;;;;;;;;;6159480;23;19920;-89
2023/05/18 01:56:31;;;;;;;;;;;;;;;;;;6186375;23;20238;-89
2023/05/18 01:58:57;;;;;;;;;;;;;;;;;;6135330;23;19916;-89
2023/05/18 02:01:23;;;;;;;;;;;;;;;;;;6159767;23;19995;-89
2023/05/18 02:03:49;;;;;;;;;;;;;;;;;;6186650;23;19931;-89
2023/05/18 02:06:15;;;;;;;;;;;;;;;;;;6159993;23;19920;-89
2023/05/18 02:08:41;;;;;;;;;;;;;;;;;;6186409;23;19943;-89
2023/05/18 02:11:10;;;;;;;;;;;;;;;;;;6186624;23;19920;-90
2023/05/18 02:13:36;;;;;;;;;;;;;;;;;;6134257;23;19916;-89
2023/05/18 02:16:02;;;;;;;;;;;;;;;;;;6159495;23;20255;-88
2023/05/18 02:18:28;;;;;;;;;;;;;;;;;;6186061;23;19916;-88
2023/05/18 02:20:55;;;;;;;;;;;;;;;;;;6159589;23;19943;-88
2023/05/18 02:23:21;;;;;;;;;;;;;;;;;;6134655;23;19923;-88
2023/05/18 02:25:47;;;;;;;;;;;;;;;;;;6159829;23;19916;-89
2023/05/18 02:28:12;;;;;;;;;;;;;;;;;;6159350;23;20321;-89
2023/05/18 02:30:38;;;;;;;;;;;;;;;;;;6186266;23;19917;-89
2023/05/18 02:33:04;;;;;;;;;;;;;;;;;;6135284;23;19916;-90
2023/05/18 02:35:30;;;;;;;;;;;;;;;;;;6159075;23;19916;-90
2023/05/18 02:37:57;;;;;;;;;;;;;;;;;;6159459;23;19927;-89
2023/05/18 02:40:22;;;;;;;;;;;;;;;;;;6158908;23;20234;-89
2023/05/18 02:42:48;;;;;;;;;;;;;;;;;;6159813;23;20000;-89
2023/05/18 02:45:14;;;;;;;;;;;;;;;;;;6135532;23;19917;-92
2023/05/18 02:47:42;;;;;;;;;;;;;;;;;;6159829;23;19917;-88
2023/05/18 02:50:08;;;;;;;;;;;;;;;;;;6134247;23;19970;-88
2023/05/18 02:52:34;;;;;;;;;;;;;;;;;;6134367;23;19916;-89
2023/05/18 02:55:00;;;;;;;;;;;;;;;;;;6159457;23;19916;-89
2023/05/18 02:57:26;;;;;;;;;;;;;;;;;;6185701;23;19916;-89
2023/05/18 02:59:52;;;;;;;;;;;;;;;;;;6134650;23;19970;-89
2023/05/18 03:02:21;;;;;;;;;;;;;;;;;;6158872;23;19991;-88
2023/05/18 03:04:52;;;;;;;;;;;;;;;;;;6159237;23;19923;-88
2023/05/18 03:07:20;;;;;;;;;;;;;;;;;;6158794;23;19983;-89
2023/05/18 03:09:45;;;;;;;;;;;;;;;;;;6159033;23;19920;-88
2023/05/18 03:12:11;;;;;;;;;;;;;;;;;;6185719;23;19916;-89
2023/05/18 03:14:37;;;;;;;;;;;;;;;;;;6158902;23;20360;-89
2023/05/18 03:17:04;;;;;;;;;;;;;;;;;;6158604;23;19916;-89
2023/05/18 03:19:31;;;;;;;;;;;;;;;;;;6134317;23;19920;-89
2023/05/18 03:21:57;;;;;;;;;;;;;;;;;;6158681;23;19924;-89
2023/05/18 03:24:25;;;;;;;;;;;;;;;;;;6185613;23;19916;-89
2023/05/18 03:26:52;;;;;;;;;;;;;;;;;;6133976;23;19920;-88
2023/05/18 03:29:18;;;;;;;;;;;;;;;;;;6133999;23;19924;-88
2023/05/18 03:31:44;;;;;;;;;;;;;;;;;;6158301;23;19916;-89
2023/05/18 03:34:10;;;;;;;;;;;;;;;;;;6158230;23;20259;-88
2023/05/18 03:36:37;;;;;;;;;;;;;;;;;;6184707;23;19946;-89
2023/05/18 03:39:03;;;;;;;;;;;;;;;;;;6158984;23;20247;-89
2023/05/18 03:41:29;;;;;;;;;;;;;;;;;;6159234;23;19928;-90
2023/05/18 03:43:55;;;;;;;;;;;;;;;;;;6184929;23;20366;-89
2023/05/18 03:46:21;;;;;;;;;;;;;;;;;;6158985;23;19917;-88
2023/05/18 03:48:47;;;;;;;;;;;;;;;;;;6158388;23;19916;-89
2023/05/18 03:51:13;;;;;;;;;;;;;;;;;;6185332;23;20346;-89
2023/05/18 03:53:39;;;;;;;;;;;;;;;;;;6184992;23;19936;-89
2023/05/18 03:56:05;;;;;;;;;;;;;;;;;;6158208;23;19924;-89
2023/05/18 03:58:31;;;;;;;;;;;;;;;;;;6185111;23;19916;-90
2023/05/18 04:00:57;;;;;;;;;;;;;;;;;;6158286;23;19974;-90
2023/05/18 04:03:25;;;;;;;;;;;;;;;;;;6158371;23;19991;-89
2023/05/18 04:05:52;;;;;;;;;;;;;;;;;;6158300;23;20254;-89
2023/05/18 04:08:18;;;;;;;;;;;;;;;;;;6134028;23;20200;-89
2023/05/18 04:10:43;;;;;;;;;;;;;;;;;;6158677;23;19951;-89
2023/05/18 04:13:09;;;;;;;;;;;;;;;;;;6133874;23;20345;-89
2023/05/18 04:15:35;;;;;;;;;;;;;;;;;;6185043;23;19921;-89
2023/05/18 04:18:01;;;;;;;;;;;;;;;;;;6158379;23;19916;-89
2023/05/18 04:20:28;;;;;;;;;;;;;;;;;;6184458;23;19920;-89
2023/05/18 04:22:54;;;;;;;;;;;;;;;;;;6158215;23;19922;-89
2023/05/18 04:25:20;;;;;;;;;;;;;;;;;;6184906;23;19995;-88
2023/05/18 04:27:46;;;;;;;;;;;;;;;;;;6157888;23;20272;-88
2023/05/18 04:30:12;;;;;;;;;;;;;;;;;;6158618;23;19952;-89
2023/05/18 04:32:38;;;;;;;;;;;;;;;;;;6184720;23;19939;-89
2023/05/18 04:35:05;;;;;;;;;;;;;;;;;;6158094;23;19923;-89
2023/05/18 04:37:31;;;;;;;;;;;;;;;;;;6157780;23;20335;-89
2023/05/18 04:40:00;;;;;;;;;;;;;;;;;;6157947;23;19916;-89
2023/05/18 04:42:26;;;;;;;;;;;;;;;;;;6158092;23;20330;-89
2023/05/18 04:44:53;;;;;;;;;;;;;;;;;;6133302;23;19917;-88
2023/05/18 04:47:20;;;;;;;;;;;;;;;;;;6133243;23;20294;-89
2023/05/18 04:49:47;;;;;;;;;;;;;;;;;;6133611;23;20030;-89
2023/05/18 04:52:13;;;;;;;;;;;;;;;;;;6158347;23;20035;-89
2023/05/18 04:54:40;;;;;;;;;;;;;;;;;;6185162;23;20239;-91
2023/05/18 04:57:05;;;;;;;;;;;;;;;;;;6159662;23;19920;-91
2023/05/18 04:59:35;;;;;;;;;;;;;;;;;;6185790;23;19916;-91
2023/05/18 05:02:01;;;;;;;;;;;;;;;;;;6159441;23;19928;-92
2023/05/18 05:04:27;;;;;;;;;;;;;;;;;;6187949;23;20246;-92
2023/05/18 05:06:53;;;;;;;;;;;;;;;;;;6138468;23;19922;-93
2023/05/18 05:09:19;;;;;;;;;;;;;;;;;;6189432;23;19916;-89
2023/05/18 05:11:45;;;;;;;;;;;;;;;;;;6137751;23;19931;-91
2023/05/18 05:14:11;;;;;;;;;;;;;;;;;;6189240;23;19920;-92
2023/05/18 05:16:37;;;;;;;;;;;;;;;;;;6188998;23;20296;-91
2023/05/18 05:19:03;;;;;;;;;;;;;;;;;;6136894;23;19921;-91
2023/05/18 05:21:30;;;;;;;;;;;;;;;;;;6137257;23;19920;-91
2023/05/18 05:23:56;;;;;;;;;;;;;;;;;;6162202;23;19923;-91
2023/05/18 05:26:22;;;;;;;;;;;;;;;;;;6137152;23;19920;-90
2023/05/18 05:28:47;;;;;;;;;;;;;;;;;;6161837;23;19920;-91
2023/05/18 05:31:13;;;;;;;;;;;;;;;;;;6136893;23;19991;-90
2023/05/18 05:33:39;;;;;;;;;;;;;;;;;;6137032;23;19916;-91
2023/05/18 05:36:06;;;;;;;;;;;;;;;;;;6188680;23;19954;-90
2023/05/18 05:38:32;;;;;;;;;;;;;;;;;;6188411;23;20273;-90
2023/05/18 05:40:58;;;;;;;;;;;;;;;;;;6188128;23;19955;-90
2023/05/18 05:43:24;;;;;;;;;;;;;;;;;;6135798;23;20289;-91
2023/05/18 05:45:50;;;;;;;;;;;;;;;;;;6161919;23;19920;-90
2023/05/18 05:48:16;;;;;;;;;;;;;;;;;;6161619;23;19951;-91
2023/05/18 05:50:42;;;;;;;;;;;;;;;;;;6162012;23;19923;-90
2023/05/18 05:53:08;;;;;;;;;;;;;;;;;;6162109;23;19916;-91
2023/05/18 05:55:39;;;;;;;;;;;;;;;;;;6162346;23;19916;-92
2023/05/18 05:58:05;;;;;;;;;;;;;;;;;;6161618;23;19920;-90
2023/05/18 06:00:31;;;;;;;;;;;;;;;;;;6161425;23;19992;-90
2023/05/18 06:02:57;;;;;;;;;;;;;;;;;;6161948;23;19916;-91
2023/05/18 06:05:23;;;;;;;;;;;;;;;;;;6161351;23;19943;-90
2023/05/18 06:07:49;;;;;;;;;;;;;;;;;;6161986;23;19970;-91
2023/05/18 06:10:15;;;;;;;;;;;;;;;;;;6188549;23;19993;-92
2023/05/18 06:12:41;;;;;;;;;;;;;;;;;;6162110;23;19920;-91
2023/05/18 06:15:07;;;;;;;;;;;;;;;;;;6160847;23;20380;-90
2023/05/18 06:17:33;;;;;;;;;;;;;;;;;;6159568;23;19917;-90
2023/05/18 06:19:59;;;;;;;;;;;;;;;;;;6159649;23;19920;-90
2023/05/18 06:22:24;;;;;;;;;;;;;;;;;;6186268;23;19930;-89
2023/05/18 06:24:50;;;;;;;;;;;;;;;;;;6159805;23;19987;-89
2023/05/18 06:27:16;;;;;;;;;;;;;;;;;;6134519;23;20042;-89
2023/05/18 06:29:42;;;;;;;;;;;;;;;;;;6159282;23;19923;-89
2023/05/18 06:32:08;;;;;;;;;;;;;;;;;;6134735;23;19966;-89
2023/05/18 06:34:34;;;;;;;;;;;;;;;;;;6134822;23;19916;-89
2023/05/18 06:37:00;;;;;;;;;;;;;;;;;;6185862;23;19991;-87
2023/05/18 06:39:26;;;;;;;;;;;;;;;;;;6134836;23;19916;-89
2023/05/18 06:41:52;;;;;;;;;;;;;;;;;;6159301;23;19923;-90
2023/05/18 06:44:18;;;;;;;;;;;;;;;;;;6161658;23;20307;-91
2023/05/18 06:46:44;;;;;;;;;;;;;;;;;;6135205;23;19916;-88
2023/05/18 06:49:10;;;;;;;;;;;;;;;;;;6187455;23;19920;-90
2023/05/18 06:51:36;;;;;;;;;;;;;;;;;;6157733;23;19963;-90
2023/05/18 06:54:03;;;;;;;;;;;;;;;;;;6184331;23;19916;-90
2023/05/18 06:56:29;;;;;;;;;;;;;;;;;;6159284;23;19923;-90
2023/05/18 06:58:55;;;;;;;;;;;;;;;;;;6134688;23;19942;-90
2023/05/18 07:01:22;;;;;;;;;;;;;;;;;;6134341;23;20348;-90
2023/05/18 07:03:48;;;;;;;;;;;;;;;;;;6134781;23;19960;-90
2023/05/18 07:06:14;;;;;;;;;;;;;;;;;;6186372;23;19979;-92
2023/05/18 07:08:40;;;;;;;;;;;;;;;;;;6134920;23;19967;-89
2023/05/18 07:11:06;;;;;;;;;;;;;;;;;;6185898;23;20286;-90
2023/05/18 07:13:32;;;;;;;;;;;;;;;;;;6134760;23;20274;-90
2023/05/18 07:15:58;;;;;;;;;;;;;;;;;;6158978;23;19923;-91
2023/05/18 07:18:25;;;;;;;;;;;;;;;;;;6158427;23;19922;-91
2023/05/18 07:20:51;;;;;;;;;;;;;;;;;;6134417;23;20387;-92
2023/05/18 07:23:17;;;;;;;;;;;;;;;;;;6159209;23;19923;-92
2023/05/18 07:25:43;;;;;;;;;;;;;;;;;;6159452;23;19932;-92
2023/05/18 07:28:09;;;;;;;;;;;;;;;;;;6158673;23;19916;-90
2023/05/18 07:30:34;;;;;;;;;;;;;;;;;;6134998;23;19923;-92
2023/05/18 07:33:00;;;;;;;;;;;;;;;;;;6158606;23;20251;-91
2023/05/18 07:35:26;;;;;;;;;;;;;;;;;;6185101;23;19922;-91
2023/05/18 07:37:52;;;;;;;;;;;;;;;;;;6158979;23;19920;-92
2023/05/18 07:40:18;;;;;;;;;;;;;;;;;;6185424;23;19982;-92
2023/05/18 07:42:44;;;;;;;;;;;;;;;;;;6185798;23;19916;-92
2023/05/18 07:45:10;;;;;;;;;;;;;;;;;;6158850;23;19923;-92
2023/05/18 07:47:36;;;;;;;;;;;;;;;;;;6159350;23;19935;-93
2023/05/18 07:50:02;;;;;;;;;;;;;;;;;;6185923;23;19920;-93
2023/05/18 07:52:28;;;;;;;;;;;;;;;;;;6159449;23;19916;-93
2023/05/18 07:54:54;;;;;;;;;;;;;;;;;;6134089;23;19944;-93
2023/05/18 07:57:20;;;;;;;;;;;;;;;;;;6159203;23;20381;-95
2023/05/18 07:59:46;;;;;;;;;;;;;;;;;;6185994;23;19927;-94
2023/05/18 08:02:12;;;;;;;;;;;;;;;;;;6158938;23;19932;-93
2023/05/18 08:04:37;;;;;;;;;;;;;;;;;;6159017;23;19916;-94
2023/05/18 08:07:03;;;;;;;;;;;;;;;;;;6134198;23;19916;-93
2023/05/18 08:09:29;;;;;;;;;;;;;;;;;;6185362;23;19920;-94
2023/05/18 08:11:55;;;;;;;;;;;;;;;;;;6185611;23;19966;-94
2023/05/18 08:14:21;;;;;;;;;;;;;;;;;;6159098;23;19916;-92
2023/05/18 08:16:47;;;;;;;;;;;;;;;;;;6158961;23;19939;-92
2023/05/18 08:19:13;;;;;;;;;;;;;;;;;;6158215;23;19920;-90
2023/05/18 08:21:39;;;;;;;;;;;;;;;;;;6133685;23;19924;-91
2023/05/18 08:24:05;;;;;;;;;;;;;;;;;;6133788;23;19924;-90
2023/05/18 08:26:31;;;;;;;;;;;;;;;;;;6158111;23;19974;-91
2023/05/18 08:28:57;;;;;;;;;;;;;;;;;;6185117;23;19924;-91
2023/05/18 08:31:23;;;;;;;;;;;;;;;;;;6184930;23;19938;-90
2023/05/18 08:33:49;;;;;;;;;;;;;;;;;;6184906;23;19916;-90
2023/05/18 08:36:16;;;;;;;;;;;;;;;;;;6185209;23;19927;-89
2023/05/18 08:38:41;;;;;;;;;;;;;;;;;;6157544;23;20330;-87
2023/05/18 08:41:07;;;;;;;;;;;;;;;;;;6133619;23;19960;-90
2023/05/18 08:43:33;;;;;;;;;;;;;;;;;;6158640;23;19931;-89
2023/05/18 08:45:59;;;;;;;;;;;;;;;;;;6158476;23;19923;-90
2023/05/18 08:48:25;;;;;;;;;;;;;;;;;;6157970;23;20281;-91
2023/05/18 08:50:52;;;;;;;;;;;;;;;;;;6158232;23;19919;-90
2023/05/18 08:53:18;;;;;;;;;;;;;;;;;;6133705;23;20293;-90
2023/05/18 08:55:44;;;;;;;;;;;;;;;;;;6184642;23;19962;-90
2023/05/18 08:58:10;;;;;;;;;;;;;;;;;;6185056;23;20054;-89
2023/05/18 09:00:36;;;;;;;;;;;;;;;;;;6133111;23;20022;-90
2023/05/18 09:03:02;;;;;;;;;;;;;;;;;;6158696;23;20405;-92
2023/05/18 09:05:28;;;;;;;;;;;;;;;;;;6158183;23;19916;-87
2023/05/18 09:07:54;;;;;;;;;;;;;;;;;;6157865;23;19916;-87
2023/05/18 09:10:20;;;;;;;;;;;;;;;;;;6157663;23;19967;-88
2023/05/18 09:12:46;;;;;;;;;;;;;;;;;;6184279;23;19995;-90
2023/05/18 09:15:12;;;;;;;;;;;;;;;;;;6157594;23;19920;-88
2023/05/18 09:17:37;;;;;;;;;;;;;;;;;;6157632;23;19987;-88
2023/05/18 09:20:04;;;;;;;;;;;;;;;;;;6183784;23;19944;-88
2023/05/18 09:22:30;;;;;;;;;;;;;;;;;;6132894;23;19956;-89
2023/05/18 09:24:56;;;;;;;;;;;;;;;;;;6157765;23;19916;-88
2023/05/18 09:27:22;;;;;;;;;;;;;;;;;;6157930;23;20015;-88
2023/05/18 09:29:48;;;;;;;;;;;;;;;;;;6133066;23;20121;-89
2023/05/18 09:32:15;;;;;;;;;;;;;;;;;;6133100;23;19999;-89
2023/05/18 09:34:41;;;;;;;;;;;;;;;;;;6157591;23;19916;-92
2023/05/18 09:37:07;;;;;;;;;;;;;;;;;;6157744;23;20294;-89
2023/05/18 09:39:33;;;;;;;;;;;;;;;;;;6157941;23;19917;-89
2023/05/18 09:41:59;;;;;;;;;;;;;;;;;;6157662;23;20319;-89
2023/05/18 09:44:24;;;;;;;;;;;;;;;;;;6133288;23;19928;-90
2023/05/18 09:46:50;;;;;;;;;;;;;;;;;;6157738;23;19967;-88
2023/05/18 09:49:16;;;;;;;;;;;;;;;;;;6184400;23;19916;-89
2023/05/18 09:51:42;;;;;;;;;;;;;;;;;;6185663;23;20591;-89
2023/05/18 09:54:09;;;;;;;;;;;;;;;;;;6159584;23;19948;-88
2023/05/18 09:56:35;;;;;;;;;;;;;;;;;;6186456;23;19923;-89
2023/05/18 09:59:00;;;;;;;;;;;;;;;;;;6159302;23;19916;-90
2023/05/18 10:01:26;;;;;;;;;;;;;;;;;;6158537;23;19939;-88
2023/05/18 10:03:52;;;;;;;;;;;;;;;;;;6186717;23;19920;-89
2023/05/18 10:06:20;;;;;;;;;;;;;;;;;;6160992;23;19931;-88
2023/05/18 10:08:46;;;;;;;;;;;;;;;;;;6134699;23;19967;-88
2023/05/18 10:11:11;;;;;;;;;;;;;;;;;;6186590;23;19916;-90
2023/05/18 10:13:37;;;;;;;;;;;;;;;;;;6138100;23;19916;-90
2023/05/18 10:16:03;;;;;;;;;;;;;;;;;;6135018;23;20251;-92
2023/05/18 10:18:29;;;;;;;;;;;;;;;;;;6158997;23;19963;-88
2023/05/18 10:20:55;;;;;;;;;;;;;;;;;;6134967;23;19978;-91
2023/05/18 10:23:21;;;;;;;;;;;;;;;;;;6160318;23;20397;-91
2023/05/18 10:25:47;;;;;;;;;;;;;;;;;;6135124;23;19916;-91
2023/05/18 10:28:13;;;;;;;;;;;;;;;;;;6159493;23;19917;-91
2023/05/18 10:30:39;;;;;;;;;;;;;;;;;;6159023;23;19952;-90
2023/05/18 10:33:05;;;;;;;;;;;;;;;;;;6158619;23;19940;-92
2023/05/18 10:35:31;;;;;;;;;;;;;;;;;;6159773;23;19952;-91
2023/05/18 10:37:57;;;;;;;;;;;;;;;;;;6135142;23;19916;-90
2023/05/18 10:40:23;;;;;;;;;;;;;;;;;;6186302;23;20008;-92
2023/05/18 10:42:49;;;;;;;;;;;;;;;;;;6159617;23;20364;-91
2023/05/18 10:45:15;;;;;;;;;;;;;;;;;;6160149;23;20342;-92
2023/05/18 10:47:41;;;;;;;;;;;;;;;;;;6135006;23;19917;-93
2023/05/18 10:50:07;;;;;;;;;;;;;;;;;;6135041;23;20365;-93
2023/05/18 10:52:33;;;;;;;;;;;;;;;;;;6159630;23;19923;-93
2023/05/18 10:54:59;;;;;;;;;;;;;;;;;;6134769;23;19922;-92
2023/05/18 10:57:25;;;;;;;;;;;;;;;;;;6185901;23;20341;-93
2023/05/18 10:59:51;;;;;;;;;;;;;;;;;;6159973;23;19923;-92
2023/05/18 11:02:17;;;;;;;;;;;;;;;;;;6185330;23;20325;-93
2023/05/18 11:04:44;;;;;;;;;;;;;;;;;;6159159;23;19923;-93
2023/05/18 11:07:10;;;;;;;;;;;;;;;;;;6186285;23;19916;-94
2023/05/18 11:09:36;;;;;;;;;;;;;;;;;;6135278;23;20015;-91
2023/05/18 11:12:02;;;;;;;;;;;;;;;;;;6158906;23;20410;-91
2023/05/18 11:14:27;;;;;;;;;;;;;;;;;;6159474;23;19916;-90
2023/05/18 11:16:53;;;;;;;;;;;;;;;;;;6158815;23;19917;-90
2023/05/18 11:19:19;;;;;;;;;;;;;;;;;;6158493;23;19991;-91
2023/05/18 11:21:46;;;;;;;;;;;;;;;;;;6134388;23;20023;-90
2023/05/18 11:24:11;;;;;;;;;;;;;;;;;;6159231;23;19916;-91
2023/05/18 11:26:37;;;;;;;;;;;;;;;;;;6159091;23;19916;-90
2023/05/18 11:29:03;;;;;;;;;;;;;;;;;;6134166;23;19916;-90
2023/05/18 11:31:29;;;;;;;;;;;;;;;;;;6186473;23;19916;-93
2023/05/18 11:33:55;;;;;;;;;;;;;;;;;;6159273;23;19920;-90
2023/05/18 11:36:21;;;;;;;;;;;;;;;;;;6185093;23;19971;-91
2023/05/18 11:38:47;;;;;;;;;;;;;;;;;;6134085;23;19916;-90
2023/05/18 11:41:13;;;;;;;;;;;;;;;;;;6134208;23;19921;-92
2023/05/18 11:43:39;;;;;;;;;;;;;;;;;;6159201;23;19924;-93
2023/05/18 11:46:05;;;;;;;;;;;;;;;;;;6158768;23;20041;-92
2023/05/18 11:48:31;;;;;;;;;;;;;;;;;;6158866;23;19916;-92
2023/05/18 11:50:57;;;;;;;;;;;;;;;;;;6134799;23;19956;-91
2023/05/18 11:53:23;;;;;;;;;;;;;;;;;;6134264;23;19952;-94
2023/05/18 11:55:51;;;;;;;;;;;;;;;;;;6160056;23;19939;-92
2023/05/18 11:58:19;;;;;;;;;;;;;;;;;;6135754;23;20047;-94
2023/05/18 12:00:46;;;;;;;;;;;;;;;;;;6159893;23;19924;-93
2023/05/18 12:03:12;;;;;;;;;;;;;;;;;;6135302;23;19939;-92
2023/05/18 12:05:40;;;;;;;;;;;;;;;;;;6136320;23;19916;-94
2023/05/18 12:08:06;;;;;;;;;;;;;;;;;;6135804;23;19916;-93
2023/05/18 12:10:33;;;;;;;;;;;;;;;;;;6136559;23;19923;-93
2023/05/18 12:12:59;;;;;;;;;;;;;;;;;;6135720;23;19916;-93
2023/05/18 12:15:25;;;;;;;;;;;;;;;;;;6185798;23;19927;-93
2023/05/18 12:17:51;;;;;;;;;;;;;;;;;;6137473;23;19923;-96
2023/05/18 12:20:16;;;;;;;;;;;;;;;;;;6135627;23;20334;-92
2023/05/18 12:22:42;;;;;;;;;;;;;;;;;;6134875;23;19920;-92
2023/05/18 12:25:10;;;;;;;;;;;;;;;;;;6134555;23;20203;-93
2023/05/18 12:27:36;;;;;;;;;;;;;;;;;;6133945;23;20098;-94
2023/05/18 12:30:02;;;;;;;;;;;;;;;;;;6134622;23;19981;-96
2023/05/18 12:32:28;;;;;;;;;;;;;;;;;;6134362;23;19920;-91
2023/05/18 12:34:54;;;;;;;;;;;;;;;;;;6133593;23;19916;-90
2023/05/18 12:37:20;;;;;;;;;;;;;;;;;;6184757;23;20401;-91
2023/05/18 12:39:48;;;;;;;;;;;;;;;;;;6159727;23;19987;-94
2023/05/18 12:42:15;;;;;;;;;;;;;;;;;;6160056;23;19924;-95
2023/05/18 12:44:42;;;;;;;;;;;;;;;;;;6138136;23;19920;-93
2023/05/18 12:47:08;;;;;;;;;;;;;;;;;;6134929;23;19917;-93
2023/05/18 12:49:34;;;;;;;;;;;;;;;;;;6134791;23;19923;-91
2023/05/18 12:52:00;;;;;;;;;;;;;;;;;;6136027;23;19916;-94
2023/05/18 12:54:29;;;;;;;;;;;;;;;;;;6186295;23;19916;-94
2023/05/18 12:56:59;;;;;;;;;;;;;;;;;;6135111;23;19943;-95
2023/05/18 12:59:25;;;;;;;;;;;;;;;;;;6134461;23;19992;-93
2023/05/18 13:01:55;;;;;;;;;;;;;;;;;;6163048;23;19916;-95
2023/05/18 13:04:30;;;;;;;;;;;;;;;;;;6164278;23;20132;-95
2023/05/18 13:07:02;;;;;;;;;;;;;;;;;;6163366;23;19917;-92
2023/05/18 13:09:28;;;;;;;;;;;;;;;;;;6134722;23;19955;-93
2023/05/18 13:11:54;;;;;;;;;;;;;;;;;;6159048;23;19916;-94
2023/05/18 13:14:22;;;;;;;;;;;;;;;;;;6135061;23;20176;-93
2023/05/18 13:16:48;;;;;;;;;;;;;;;;;;6158935;23;19916;-95
2023/05/18 13:19:14;;;;;;;;;;;;;;;;;;6134351;23;20087;-95
2023/05/18 13:21:40;;;;;;;;;;;;;;;;;;6135042;23;19927;-95
2023/05/18 13:24:06;;;;;;;;;;;;;;;;;;6134957;23;19994;-94
2023/05/18 13:26:31;;;;;;;;;;;;;;;;;;6137371;23;19923;-95
2023/05/18 13:28:59;;;;;;;;;;;;;;;;;;6137695;23;19923;-91
2023/05/18 13:31:31;;;;;;;;;;;;;;;;;;6175292;23;19919;-92
2023/05/18 13:34:17;;;;;;;;;;;;;;;;;;6186273;22;19908;-96
2023/05/18 13:36:43;;;;;;;;;;;;;;;;;;6166251;23;20369;-95
2023/05/18 13:39:20;;;;;;;;;;;;;;;;;;6177959;23;19920;-96
2023/05/18 13:42:06;;;;;;;;;;;;;;;;;;;;;
2023/05/18 13:48:02;;;;;;;;;;;;;;;;;;;;;
2023/05/18 13:50:43;;;;;;;;;;;;;;;;;;;;;
2023/05/18 14:04:06;;;;;;;;;;;;;;;;;;6019295;23;19918;-95
2023/05/18 14:22:30;;;;;;;;;;;;;;;;;;6209965;23;19920;-93
2023/05/18 14:25:02;;;;;;;;;;;;;;;;;;6166672;23;19915;-94
2023/05/18 14:27:28;;;;;;;;;;;;;;;;;;6165913;23;19916;-93
2023/05/18 14:30:27;;;;;;;;;;;;;;;;;;6194480;23;19940;-93
2023/05/18 14:36:04;;;;;;;;;;;;;;;;;;6134957;23;19939;-92
2023/05/18 14:38:45;;;;;;;;;;;;;;;;;;6192113;23;20292;-93
2023/05/18 14:41:11;;;;;;;;;;;;;;;;;;6166448;23;20415;-95
2023/05/18 14:43:37;;;;;;;;;;;;;;;;;;6168768;23;19986;-95
2023/05/18 14:46:05;;;;;;;;;;;;;;;;;;6170959;23;20261;-96
2023/05/18 14:48:39;;;;;;;;;;;;;;;;;;6197409;23;19938;-96
2023/05/18 14:51:05;;;;;;;;;;;;;;;;;;6173148;23;19939;-95
2023/05/18 14:53:31;;;;;;;;;;;;;;;;;;6195375;23;19999;-95
2023/05/18 14:56:04;;;;;;;;;;;;;;;;;;6193815;23;19970;-95
2023/05/18 14:58:30;;;;;;;;;;;;;;;;;;6168399;23;19990;-95
2023/05/18 15:00:59;;;;;;;;;;;;;;;;;;6166182;23;19927;-93
2023/05/18 15:03:28;;;;;;;;;;;;;;;;;;6165393;23;19916;-96
2023/05/18 15:05:54;;;;;;;;;;;;;;;;;;6165311;23;20344;-96
2023/05/18 15:08:20;;;;;;;;;;;;;;;;;;6165135;23;20030;-95
2023/05/18 15:10:46;;;;;;;;;;;;;;;;;;6165743;23;20335;-95
2023/05/18 15:13:14;;;;;;;;;;;;;;;;;;6164775;23;20335;-94
2023/05/18 15:15:40;;;;;;;;;;;;;;;;;;6189943;23;19920;-93
2023/05/18 15:18:06;;;;;;;;;;;;;;;;;;6165378;23;20005;-92
2023/05/18 15:20:35;;;;;;;;;;;;;;;;;;6165216;23;19916;-92
2023/05/18 15:23:01;;;;;;;;;;;;;;;;;;6169832;23;19927;-94
2023/05/18 15:25:29;;;;;;;;;;;;;;;;;;6165014;23;19915;-96
2023/05/18 15:27:59;;;;;;;;;;;;;;;;;;6165681;23;19920;-94
2023/05/18 15:30:27;;;;;;;;;;;;;;;;;;6164729;23;19966;-95
2023/05/18 15:32:56;;;;;;;;;;;;;;;;;;6168179;23;19923;-93
2023/05/18 15:35:28;;;;;;;;;;;;;;;;;;6193353;23;19962;-96
2023/05/18 15:43:22;;;;;;;;;;;;;;;;;;6188000;23;20301;-94
2023/05/18 15:45:47;;;;;;;;;;;;;;;;;;6188415;23;20060;-94
2023/05/18 16:10:18;;;;;;;;;;;;;;;;;;6192826;23;20382;-95
2023/05/18 16:12:44;;;;;;;;;;;;;;;;;;6191045;23;19916;-94
2023/05/18 16:15:10;;;;;;;;;;;;;;;;;;6195588;23;19972;-94
2023/05/18 16:22:50;;;;;;;;;;;;;;;;;;6194605;23;20330;-94
2023/05/18 16:25:16;;;;;;;;;;;;;;;;;;6192758;23;20298;-92
2023/05/18 16:27:42;;;;;;;;;;;;;;;;;;6165715;23;19950;-95
2023/05/18 16:30:07;;;;;;;;;;;;;;;;;;6165798;23;19927;-96
2023/05/18 16:37:45;;;;;;;;;;;;;;;;;;6210112;23;19986;-93
2023/05/18 16:40:13;;;;;;;;;;;;;;;;;;6191507;23;19974;-94
2023/05/18 16:42:39;;;;;;;;;;;;;;;;;;6167055;23;19939;-95
2023/05/18 16:45:05;;;;;;;;;;;;;;;;;;6165427;23;19923;-95
2023/05/18 16:47:33;;;;;;;;;;;;;;;;;;6167788;23;20037;-93
2023/05/18 16:49:59;;;;;;;;;;;;;;;;;;6193619;23;19916;-96
2023/05/18 16:52:28;;;;;;;;;;;;;;;;;;6193449;23;19985;-93
2023/05/18 16:54:57;;;;;;;;;;;;;;;;;;6208790;23;19939;-96
2023/05/18 17:00:10;;;;;;;;;;;;;;;;;;6202808;23;19927;-96
2023/05/18 17:02:39;;;;;;;;;;;;;;;;;;6223752;23;19920;-93
2023/05/18 17:05:05;;;;;;;;;;;;;;;;;;6169009;23;19947;-95
2023/05/18 17:07:31;;;;;;;;;;;;;;;;;;6191114;23;19922;-95
2023/05/18 17:10:00;;;;;;;;;;;;;;;;;;6174673;23;19904;-95
2023/05/18 17:12:33;;;;;;;;;;;;;;;;;;6198726;23;19997;-92
2023/05/18 17:17:50;;;;;;;;;;;;;;;;;;6205738;23;19931;-92
2023/05/18 17:20:16;;;;;;;;;;;;;;;;;;6174454;23;19940;-96
2023/05/18 17:22:43;;;;;;;;;;;;;;;;;;6164697;23;19978;-95
2023/05/18 17:25:09;;;;;;;;;;;;;;;;;;6219382;23;19939;-93
2023/05/18 17:27:53;;;;;;;;;;;;;;;;;;6167561;23;19916;-96
2023/05/18 17:32:55;;;;;;;;;;;;;;;;;;6194291;23;19920;-94
2023/05/18 17:35:40;;;;;;;;;;;;;;;;;;;;;
2023/05/18 17:41:10;;;;;;;;;;;;;;;;;;6182479;23;19944;-94
2023/05/18 17:43:36;;;;;;;;;;;;;;;;;;6191878;23;20262;-92
2023/05/18 17:46:05;;;;;;;;;;;;;;;;;;6171707;23;19923;-95
2023/05/18 17:48:31;;;;;;;;;;;;;;;;;;6166144;23;19916;-92
2023/05/18 17:50:58;;;;;;;;;;;;;;;;;;6172535;23;20001;-96
2023/05/18 17:53:23;;;;;;;;;;;;;;;;;;6176516;23;19971;-93
2023/05/18 17:55:52;;;;;;;;;;;;;;;;;;6167664;23;19916;-94
2023/05/18 17:58:31;;;;;;;;;;;;;;;;;;6200557;23;19994;-92
2023/05/18 18:03:55;;;;;;;;;;;;;;;;;;6210795;23;19942;-93
2023/05/18 18:06:21;;;;;;;;;;;;;;;;;;6163585;23;19923;-93
2023/05/18 18:08:47;;;;;;;;;;;;;;;;;;6164343;23;19916;-95
2023/05/18 18:14:16;;;;;;;;;;;;;;;;;;6173029;23;19920;-94